Time;durP1;ratioP1;P1;durP2;ratioP2;P2;SDS_P1;SDS_P2;PMS_P1;PMS_P2;Temp;Humidity;BMP_temperature;BMP_pressure;BME280_temperature;BME280_humidity;BME280_pressure;Samples;Min_cycle;Max_cycle;Signal;HPM_P1;HPM_P2
2022/07/07 00:01:26;;;;;;;1.83;1.67;;;23.00;64.10;;;;;;4953449;29;20221;-72
2022/07/07 00:03:53;;;;;;;1.63;1.52;;;23.00;64.10;;;;;;4937755;29;20194;-72
2022/07/07 00:06:19;;;;;;;2.30;2.20;;;23.00;64.00;;;;;;4937200;29;20189;-72
2022/07/07 00:08:47;;;;;;;1.65;1.55;;;23.00;64.00;;;;;;4953573;28;20206;-72
2022/07/07 00:11:15;;;;;;;1.63;1.52;;;23.00;64.00;;;;;;4969554;28;20305;-72
2022/07/07 00:13:41;;;;;;;2.00;1.90;;;23.00;64.10;;;;;;4953400;28;20220;-72
2022/07/07 00:16:07;;;;;;;1.85;1.75;;;23.00;64.10;;;;;;4952887;28;20547;-72
2022/07/07 00:18:34;;;;;;;1.75;1.65;;;23.00;64.10;;;;;;4953672;28;20189;-72
2022/07/07 00:21:00;;;;;;;2.33;2.13;;;23.00;64.00;;;;;;4969370;28;20217;-72
2022/07/07 00:23:26;;;;;;;1.70;1.60;;;23.00;64.10;;;;;;4953351;28;20190;-71
2022/07/07 00:25:53;;;;;;;2.03;1.92;;;23.00;64.00;;;;;;4969271;28;20190;-72
2022/07/07 00:28:19;;;;;;;1.85;1.75;;;23.00;64.10;;;;;;4953880;28;20205;-72
2022/07/07 00:30:44;;;;;;;1.90;1.80;;;23.00;64.00;;;;;;4953093;28;20222;-72
2022/07/07 00:33:11;;;;;;;1.55;1.45;;;22.90;64.00;;;;;;4953691;28;20190;-72
2022/07/07 00:35:37;;;;;;;1.63;1.52;;;22.90;63.90;;;;;;4937505;29;20183;-72
2022/07/07 00:38:03;;;;;;;1.63;1.52;;;23.00;64.10;;;;;;4952967;28;20289;-72
2022/07/07 00:40:29;;;;;;;1.88;1.77;;;22.90;63.90;;;;;;4969218;28;20206;-72
2022/07/07 00:42:55;;;;;;;1.88;1.77;;;22.90;63.90;;;;;;4969518;28;20529;-72
2022/07/07 00:45:20;;;;;;;1.95;1.75;;;22.90;63.80;;;;;;4954192;28;20191;-72
2022/07/07 00:47:47;;;;;;;1.80;1.70;;;22.90;64.00;;;;;;4968513;28;20190;-72
2022/07/07 00:50:13;;;;;;;1.73;1.63;;;22.90;63.90;;;;;;4968212;28;20610;-72
2022/07/07 00:52:39;;;;;;;2.25;1.80;;;22.90;63.70;;;;;;4969047;28;20249;-72
2022/07/07 00:55:08;;;;;;;1.80;1.70;;;22.90;64.00;;;;;;4954406;28;20659;-72
2022/07/07 00:57:34;;;;;;;1.60;1.50;;;22.90;63.90;;;;;;4952379;28;20281;-72
2022/07/07 01:00:08;;;;;;;1.83;1.73;;;22.90;64.00;;;;;;4952779;28;20218;-72
2022/07/07 01:02:34;;;;;;;1.50;1.40;;;22.90;64.00;;;;;;4937042;29;20270;-72
2022/07/07 01:05:06;;;;;;;1.58;1.48;;;22.90;64.00;;;;;;4968976;28;20229;-72
2022/07/07 01:07:33;;;;;;;1.75;1.65;;;22.90;64.00;;;;;;4968198;28;20197;-71
2022/07/07 01:10:00;;;;;;;1.73;1.63;;;22.90;63.90;;;;;;4968833;28;20241;-72
2022/07/07 01:12:36;;;;;;;2.10;1.70;;;22.90;64.00;;;;;;4954033;28;20187;-72
2022/07/07 01:15:04;;;;;;;1.77;1.67;;;22.90;63.90;;;;;;4969170;28;20697;-72
2022/07/07 01:17:30;;;;;;;2.17;1.70;;;22.90;64.00;;;;;;4968345;28;20190;-72
2022/07/07 01:19:57;;;;;;;1.60;1.50;;;22.90;64.00;;;;;;4968810;28;20237;-72
2022/07/07 01:22:31;;;;;;;1.23;1.23;;;22.90;64.00;;;;;;4936891;28;20194;-72
2022/07/07 01:24:58;;;;;;;1.70;1.60;;;22.90;64.00;;;;;;4968953;28;20580;-72
2022/07/07 01:27:24;;;;;;;1.73;1.63;;;22.90;63.90;;;;;;4968527;28;20256;-72
2022/07/07 01:29:53;;;;;;;1.80;1.70;;;22.90;63.90;;;;;;4952581;28;20222;-72
2022/07/07 01:32:20;;;;;;;1.48;1.38;;;22.90;64.00;;;;;;4968894;28;20179;-72
2022/07/07 01:34:48;;;;;;;1.55;1.45;;;22.90;64.00;;;;;;4952970;28;20214;-72
2022/07/07 01:37:15;;;;;;;1.60;1.50;;;22.90;63.90;;;;;;4968231;28;20226;-72
2022/07/07 01:39:43;;;;;;;1.58;1.48;;;22.90;64.00;;;;;;4953898;28;20705;-72
2022/07/07 01:42:10;;;;;;;1.50;1.40;;;22.90;63.90;;;;;;4957313;28;20706;-72
2022/07/07 01:44:39;;;;;;;1.40;1.30;;;22.90;63.90;;;;;;4972134;28;20194;-72
2022/07/07 01:47:07;;;;;;;1.52;1.42;;;22.80;63.90;;;;;;4971467;28;20302;-71
2022/07/07 01:49:34;;;;;;;1.70;1.60;;;22.90;63.90;;;;;;4971857;28;20222;-72
2022/07/07 01:52:01;;;;;;;1.67;1.58;;;22.90;64.00;;;;;;4955879;28;20647;-72
2022/07/07 01:54:28;;;;;;;1.85;1.67;;;22.80;63.90;;;;;;4957316;28;20257;-72
2022/07/07 01:56:54;;;;;;;1.73;1.63;;;22.90;64.00;;;;;;4956405;28;20187;-71
2022/07/07 01:59:20;;;;;;;1.70;1.60;;;22.90;64.00;;;;;;4955601;29;20190;-72
2022/07/07 02:01:46;;;;;;;1.60;1.50;;;22.80;63.80;;;;;;4955932;29;20186;-72
2022/07/07 02:04:11;;;;;;;1.52;1.42;;;22.80;63.80;;;;;;4955697;28;20186;-72
2022/07/07 02:06:40;;;;;;;1.83;1.73;;;22.80;63.80;;;;;;4955385;28;20331;-72
2022/07/07 02:09:07;;;;;;;1.77;1.67;;;22.80;63.90;;;;;;4955586;29;20187;-72
2022/07/07 02:11:36;;;;;;;1.95;1.55;;;22.80;63.80;;;;;;4955647;28;20186;-72
2022/07/07 02:14:04;;;;;;;1.80;1.70;;;22.80;63.90;;;;;;4960592;28;20278;-71
2022/07/07 02:16:31;;;;;;;1.75;1.65;;;22.80;63.60;;;;;;4953087;28;20187;-71
2022/07/07 02:19:00;;;;;;;1.60;1.50;;;22.80;63.70;;;;;;4937504;29;20247;-72
2022/07/07 02:21:26;;;;;;;1.88;1.40;;;22.80;63.70;;;;;;4968827;28;20241;-72
2022/07/07 02:23:54;;;;;;;1.60;1.50;;;22.80;63.90;;;;;;4968331;28;20199;-72
2022/07/07 02:26:21;;;;;;;1.42;1.33;;;22.80;63.80;;;;;;4967713;28;20193;-72
2022/07/07 02:28:47;;;;;;;1.30;1.30;;;22.80;63.90;;;;;;4952165;29;20191;-72
2022/07/07 02:31:13;;;;;;;1.58;1.48;;;22.80;63.90;;;;;;4968176;28;20230;-72
2022/07/07 02:33:39;;;;;;;1.70;1.50;;;22.80;63.90;;;;;;4968098;28;20230;-72
2022/07/07 02:36:06;;;;;;;2.35;1.75;;;22.80;63.60;;;;;;4935569;29;20222;-72
2022/07/07 02:38:34;;;;;;;1.70;1.60;;;22.80;63.90;;;;;;4935920;29;20195;-72
2022/07/07 02:41:00;;;;;;;1.63;1.52;;;22.80;63.90;;;;;;4967919;28;20218;-72
2022/07/07 02:43:26;;;;;;;1.60;1.50;;;22.80;64.70;;;;;;4935791;29;20198;-72
2022/07/07 02:45:52;;;;;;;1.75;1.65;;;22.80;63.90;;;;;;4935682;29;20210;-72
2022/07/07 02:48:22;;;;;;;1.52;1.42;;;22.80;63.80;;;;;;4935211;28;20195;-72
2022/07/07 02:50:49;;;;;;;1.52;1.42;;;22.80;63.90;;;;;;4935221;29;20230;-72
2022/07/07 02:53:17;;;;;;;1.50;1.40;;;22.80;63.80;;;;;;4951504;28;20263;-72
2022/07/07 02:55:43;;;;;;;1.35;1.30;;;22.80;63.90;;;;;;4935532;28;20187;-71
2022/07/07 02:58:12;;;;;;;1.30;1.25;;;22.80;63.90;;;;;;4951422;28;20187;-72
2022/07/07 03:00:39;;;;;;;1.70;1.60;;;22.80;63.80;;;;;;4935529;29;20262;-72
2022/07/07 03:03:10;;;;;;;1.60;1.50;;;22.70;63.80;;;;;;4935629;29;20187;-72
2022/07/07 03:05:37;;;;;;;1.80;1.70;;;22.70;63.70;;;;;;4951380;29;20191;-72
2022/07/07 03:08:03;;;;;;;1.95;1.40;;;22.80;63.80;;;;;;4934879;29;20194;-72
2022/07/07 03:10:29;;;;;;;1.50;1.40;;;22.70;63.80;;;;;;4935269;29;20223;-72
2022/07/07 03:12:55;;;;;;;1.77;1.67;;;22.80;63.90;;;;;;4935236;29;20188;-72
2022/07/07 03:15:21;;;;;;;1.67;1.58;;;22.70;63.80;;;;;;4967386;28;20596;-72
2022/07/07 03:17:49;;;;;;;1.60;1.50;;;22.70;63.80;;;;;;4934962;29;20191;-72
2022/07/07 03:20:18;;;;;;;1.60;1.50;;;22.80;63.90;;;;;;4951231;29;20582;-71
2022/07/07 03:22:44;;;;;;;1.58;1.48;;;22.70;63.80;;;;;;4935492;29;20195;-72
2022/07/07 03:25:11;;;;;;;1.65;1.55;;;22.70;63.80;;;;;;4935513;28;20191;-72
2022/07/07 03:27:38;;;;;;;1.23;1.23;;;22.70;63.80;;;;;;4934570;29;20211;-72
2022/07/07 03:30:06;;;;;;;1.40;1.33;;;22.70;63.80;;;;;;4934804;28;20317;-71
2022/07/07 03:32:33;;;;;;;1.52;1.42;;;22.70;63.80;;;;;;4967268;28;20191;-72
2022/07/07 03:34:59;;;;;;;1.50;1.40;;;22.70;63.80;;;;;;4935240;29;20282;-72
2022/07/07 03:37:25;;;;;;;1.58;1.48;;;22.80;63.80;;;;;;4934311;29;20214;-72
2022/07/07 03:39:51;;;;;;;1.50;1.40;;;22.70;63.80;;;;;;4934842;29;20675;-72
2022/07/07 03:42:17;;;;;;;1.40;1.30;;;22.80;63.90;;;;;;4936325;29;20190;-72
2022/07/07 03:44:43;;;;;;;1.80;1.70;;;22.80;63.90;;;;;;4935936;29;20191;-72
2022/07/07 03:47:08;;;;;;;1.38;1.23;;;22.80;63.80;;;;;;4935319;29;20701;-72
2022/07/07 03:49:34;;;;;;;1.70;1.60;;;22.70;63.70;;;;;;4966634;28;20262;-72
2022/07/07 03:52:00;;;;;;;1.50;1.40;;;22.80;63.90;;;;;;4934902;29;20183;-72
2022/07/07 03:54:26;;;;;;;1.60;1.50;;;22.70;63.80;;;;;;4950523;28;20199;-72
2022/07/07 03:56:52;;;;;;;1.50;1.40;;;22.70;63.70;;;;;;4952372;29;20267;-72
2022/07/07 03:59:18;;;;;;;2.03;1.38;;;22.70;63.80;;;;;;4969435;28;20179;-72
2022/07/07 04:01:45;;;;;;;1.50;1.40;;;22.70;63.80;;;;;;4954791;28;20178;-72
2022/07/07 04:04:15;;;;;;;1.52;1.42;;;22.70;63.80;;;;;;4952554;28;20246;-71
2022/07/07 04:06:42;;;;;;;1.70;1.60;;;22.70;63.80;;;;;;4988077;28;20221;-72
2022/07/07 04:09:08;;;;;;;1.52;1.25;;;22.70;63.80;;;;;;4972925;28;20184;-71
2022/07/07 04:11:34;;;;;;;1.50;1.38;;;22.70;63.80;;;;;;4988995;28;20185;-72
2022/07/07 04:14:01;;;;;;;1.60;1.50;;;22.70;63.80;;;;;;4988805;28;20193;-72
2022/07/07 04:16:29;;;;;;;1.33;1.30;;;22.70;63.90;;;;;;4973294;28;20162;-72
2022/07/07 04:18:58;;;;;;;1.42;1.33;;;22.70;63.80;;;;;;4957030;28;20193;-72
2022/07/07 04:21:24;;;;;;;1.45;1.35;;;22.70;63.80;;;;;;4973843;28;20209;-72
2022/07/07 04:23:50;;;;;;;1.30;1.20;;;22.70;63.80;;;;;;4988932;28;20188;-72
2022/07/07 04:26:16;;;;;;;1.70;1.60;;;22.70;63.80;;;;;;4956213;28;20178;-72
2022/07/07 04:28:42;;;;;;;1.80;1.42;;;22.70;63.70;;;;;;4972801;28;20197;-72
2022/07/07 04:31:07;;;;;;;1.60;1.50;;;22.70;63.80;;;;;;4972808;28;20686;-72
2022/07/07 04:33:33;;;;;;;1.30;1.30;;;22.70;63.80;;;;;;4972426;28;20190;-72
2022/07/07 04:35:59;;;;;;;1.60;1.50;;;22.70;63.60;;;;;;4956359;28;20189;-72
2022/07/07 04:38:24;;;;;;;1.70;1.60;;;22.70;63.50;;;;;;4971949;28;20185;-72
2022/07/07 04:40:50;;;;;;;1.75;1.65;;;22.70;63.40;;;;;;4972456;28;20209;-72
2022/07/07 04:43:16;;;;;;;1.60;1.50;;;22.70;63.40;;;;;;4988787;28;20180;-72
2022/07/07 04:45:42;;;;;;;1.73;1.60;;;22.70;63.30;;;;;;4972348;28;20190;-72
2022/07/07 04:48:08;;;;;;;1.60;1.50;;;22.70;63.40;;;;;;4971920;28;20193;-73
2022/07/07 04:50:34;;;;;;;1.58;1.30;;;22.70;63.30;;;;;;4972350;28;20286;-73
2022/07/07 04:53:00;;;;;;;1.63;1.52;;;22.70;63.40;;;;;;4956319;28;20219;-72
2022/07/07 04:55:25;;;;;;;1.52;1.42;;;22.70;63.40;;;;;;4972727;28;20186;-73
2022/07/07 04:57:51;;;;;;;1.40;1.40;;;22.70;63.40;;;;;;4970802;28;20187;-73
2022/07/07 05:00:17;;;;;;;1.05;1.05;;;22.70;63.30;;;;;;4940805;29;20230;-73
2022/07/07 05:02:43;;;;;;;1.83;1.73;;;22.70;63.20;;;;;;4942911;28;20194;-73
2022/07/07 05:05:08;;;;;;;1.60;1.50;;;22.70;63.00;;;;;;4966269;28;20282;-73
2022/07/07 05:07:34;;;;;;;1.50;1.40;;;22.70;63.10;;;;;;4934398;28;20183;-73
2022/07/07 05:10:00;;;;;;;1.38;1.27;;;22.70;63.00;;;;;;4949522;28;20219;-72
2022/07/07 05:12:26;;;;;;;1.58;1.48;;;22.70;63.00;;;;;;4902040;29;20242;-72
2022/07/07 05:14:52;;;;;;;1.70;1.60;;;22.70;62.90;;;;;;4935281;29;20183;-72
2022/07/07 05:17:18;;;;;;;1.40;1.30;;;22.70;62.90;;;;;;4937061;29;20194;-73
2022/07/07 05:19:44;;;;;;;1.67;1.58;;;22.70;62.80;;;;;;4953006;28;20217;-72
2022/07/07 05:22:10;;;;;;;1.83;1.70;;;22.70;62.90;;;;;;4936947;29;20195;-72
2022/07/07 05:24:36;;;;;;;2.05;1.77;;;22.70;62.80;;;;;;4937120;29;20198;-72
2022/07/07 05:27:02;;;;;;;1.80;1.70;;;22.70;62.70;;;;;;4920514;29;20191;-72
2022/07/07 05:29:28;;;;;;;1.70;1.60;;;22.70;62.70;;;;;;4952644;29;20195;-72
2022/07/07 05:31:54;;;;;;;1.50;1.40;;;22.70;62.70;;;;;;4938096;29;20187;-72
2022/07/07 05:34:20;;;;;;;3.17;1.70;;;22.70;62.60;;;;;;4952598;28;20187;-72
2022/07/07 05:36:46;;;;;;;1.77;1.63;;;22.70;62.60;;;;;;4935962;28;20690;-72
2022/07/07 05:39:13;;;;;;;1.65;1.55;;;22.70;62.60;;;;;;4936850;29;20179;-72
2022/07/07 05:41:40;;;;;;;1.73;1.50;;;22.70;62.70;;;;;;4952747;29;20576;-72
2022/07/07 05:44:06;;;;;;;1.50;1.40;;;22.70;62.70;;;;;;4920749;29;20254;-72
2022/07/07 05:46:32;;;;;;;1.75;1.65;;;22.60;62.60;;;;;;4936132;29;20275;-72
2022/07/07 05:48:58;;;;;;;1.70;1.60;;;22.70;62.70;;;;;;4952750;28;20185;-73
2022/07/07 05:51:23;;;;;;;1.45;1.35;;;22.70;62.60;;;;;;4920488;29;20245;-73
2022/07/07 05:53:49;;;;;;;1.70;1.60;;;22.70;62.60;;;;;;4937630;29;20249;-73
2022/07/07 05:56:15;;;;;;;2.33;1.58;;;22.70;62.70;;;;;;4951725;28;20191;-72
2022/07/07 05:58:41;;;;;;;1.88;1.60;;;22.70;62.60;;;;;;4939270;29;20194;-73
2022/07/07 06:01:07;;;;;;;1.52;1.42;;;22.70;62.80;;;;;;4938965;28;20368;-73
2022/07/07 06:03:33;;;;;;;1.98;1.52;;;22.70;62.70;;;;;;4955798;29;20232;-73
2022/07/07 06:05:59;;;;;;;2.28;1.42;;;22.70;62.60;;;;;;4957265;29;20210;-72
2022/07/07 06:08:26;;;;;;;1.63;1.52;;;22.70;62.70;;;;;;4960989;29;20199;-73
2022/07/07 06:10:52;;;;;;;1.35;1.25;;;22.70;62.70;;;;;;4956059;28;20225;-73
2022/07/07 06:13:18;;;;;;;1.33;1.23;;;22.70;62.70;;;;;;4973577;28;20261;-73
2022/07/07 06:15:44;;;;;;;1.42;1.33;;;22.80;62.70;;;;;;4939197;28;20186;-72
2022/07/07 06:18:09;;;;;;;1.65;1.55;;;22.70;62.60;;;;;;4955818;29;20186;-73
2022/07/07 06:20:36;;;;;;;1.92;1.20;;;22.70;62.70;;;;;;4955476;28;20217;-73
2022/07/07 06:23:02;;;;;;;1.60;1.50;;;22.70;62.70;;;;;;4955136;28;20655;-73
2022/07/07 06:25:28;;;;;;;1.40;1.30;;;22.70;62.70;;;;;;4954518;28;20209;-73
2022/07/07 06:27:54;;;;;;;1.50;1.40;;;22.70;62.60;;;;;;4954184;28;20595;-74
2022/07/07 06:30:20;;;;;;;1.40;1.30;;;22.70;62.70;;;;;;4938779;28;20667;-73
2022/07/07 06:32:46;;;;;;;1.30;1.13;;;22.70;62.70;;;;;;4970945;28;20281;-73
2022/07/07 06:35:12;;;;;;;1.23;1.23;;;22.70;62.60;;;;;;4938906;28;20282;-73
2022/07/07 06:37:39;;;;;;;1.42;1.40;;;22.80;62.70;;;;;;4954328;29;20194;-73
2022/07/07 06:40:06;;;;;;;1.60;1.50;;;22.70;62.60;;;;;;4954921;29;20230;-73
2022/07/07 06:42:32;;;;;;;1.40;1.30;;;22.70;62.70;;;;;;4954959;28;20198;-73
2022/07/07 06:45:10;;;;;;;1.20;1.20;;;22.80;62.70;;;;;;4940570;29;20190;-73
2022/07/07 06:47:36;;;;;;;1.65;1.55;;;22.70;62.70;;;;;;4954025;29;20194;-73
2022/07/07 06:50:02;;;;;;;1.38;1.30;;;22.70;62.70;;;;;;4952986;29;20222;-73
2022/07/07 06:52:28;;;;;;;2.42;1.20;;;22.70;62.70;;;;;;4970631;28;20191;-73
2022/07/07 06:54:54;;;;;;;1.25;1.15;;;22.70;62.70;;;;;;4954337;28;20241;-73
2022/07/07 06:57:20;;;;;;;1.48;1.38;;;22.80;62.80;;;;;;4954022;29;20194;-73
2022/07/07 06:59:45;;;;;;;1.48;1.38;;;22.80;62.80;;;;;;4955414;28;20214;-73
2022/07/07 07:02:11;;;;;;;1.30;1.20;;;22.80;62.80;;;;;;4954716;28;20230;-73
2022/07/07 07:04:37;;;;;;;1.20;1.20;;;22.80;62.90;;;;;;4954512;29;20194;-73
2022/07/07 07:07:04;;;;;;;1.30;1.27;;;22.80;62.80;;;;;;4953596;28;20191;-73
2022/07/07 07:09:30;;;;;;;1.40;1.30;;;22.70;62.70;;;;;;4953909;28;20301;-73
2022/07/07 07:11:56;;;;;;;1.30;1.30;;;22.80;62.80;;;;;;4955014;28;20182;-74
2022/07/07 07:14:22;;;;;;;1.42;1.33;;;22.70;62.60;;;;;;4954295;29;20191;-73
2022/07/07 07:16:48;;;;;;;1.30;1.20;;;22.70;62.60;;;;;;4953563;29;20273;-73
2022/07/07 07:19:14;;;;;;;1.33;1.23;;;22.70;62.60;;;;;;4954027;29;20174;-73
2022/07/07 07:21:41;;;;;;;1.38;1.27;;;22.80;62.70;;;;;;4954277;29;20187;-73
2022/07/07 07:24:07;;;;;;;1.30;1.20;;;22.70;62.50;;;;;;4953921;29;20186;-73
2022/07/07 07:26:34;;;;;;;2.35;1.35;;;22.80;62.60;;;;;;4953171;28;20202;-73
2022/07/07 07:29:00;;;;;;;1.40;1.30;;;22.70;62.50;;;;;;4954024;28;20293;-73
2022/07/07 07:31:25;;;;;;;1.30;1.20;;;22.80;62.60;;;;;;4954114;28;20317;-73
2022/07/07 07:33:51;;;;;;;1.50;1.40;;;22.80;62.50;;;;;;4953883;28;20677;-73
2022/07/07 07:36:17;;;;;;;1.40;1.30;;;22.80;62.60;;;;;;4937976;29;20281;-73
2022/07/07 07:38:44;;;;;;;1.58;1.25;;;22.80;62.40;;;;;;4953136;28;20233;-73
2022/07/07 07:41:11;;;;;;;1.40;1.30;;;22.80;62.30;;;;;;4953309;28;20308;-73
2022/07/07 07:43:38;;;;;;;1.50;1.40;;;22.80;62.40;;;;;;4953749;28;20202;-73
2022/07/07 07:46:04;;;;;;;1.88;1.50;;;22.80;62.40;;;;;;4953628;28;20213;-73
2022/07/07 07:48:30;;;;;;;1.58;1.45;;;22.90;62.50;;;;;;4954206;28;20671;-73
2022/07/07 07:50:56;;;;;;;1.90;1.33;;;22.90;62.50;;;;;;4953218;28;20218;-73
2022/07/07 07:53:22;;;;;;;1.50;1.38;;;22.90;62.40;;;;;;4953428;28;20187;-73
2022/07/07 07:55:47;;;;;;;1.58;1.40;;;22.90;62.40;;;;;;4952715;29;20187;-73
2022/07/07 07:58:13;;;;;;;1.45;1.35;;;22.90;62.50;;;;;;4952762;29;20249;-73
2022/07/07 08:00:39;;;;;;;1.20;1.10;;;22.90;62.50;;;;;;4953235;28;20237;-73
2022/07/07 08:03:05;;;;;;;1.30;1.20;;;22.90;62.40;;;;;;4969459;28;20253;-73
2022/07/07 08:05:31;;;;;;;1.60;1.33;;;22.90;62.40;;;;;;4953185;28;20197;-73
2022/07/07 08:07:57;;;;;;;1.48;1.38;;;22.90;62.20;;;;;;4968726;28;20214;-73
2022/07/07 08:10:23;;;;;;;1.20;1.20;;;22.90;62.40;;;;;;4953053;28;20660;-73
2022/07/07 08:12:50;;;;;;;1.70;1.50;;;22.90;62.40;;;;;;4953190;28;20221;-73
2022/07/07 08:15:16;;;;;;;1.40;1.30;;;22.90;62.40;;;;;;4968714;28;20214;-73
2022/07/07 08:17:42;;;;;;;1.50;1.40;;;22.90;62.60;;;;;;4952451;28;20186;-73
2022/07/07 08:20:09;;;;;;;1.50;1.40;;;22.90;62.50;;;;;;4954088;28;20260;-73
2022/07/07 08:22:36;;;;;;;1.50;1.40;;;22.90;62.40;;;;;;4936957;28;20194;-73
2022/07/07 08:25:02;;;;;;;1.40;1.30;;;22.90;62.40;;;;;;4952960;28;20269;-73
2022/07/07 08:27:28;;;;;;;1.50;1.40;;;22.90;62.60;;;;;;4968657;28;20183;-73
2022/07/07 08:29:53;;;;;;;1.50;1.40;;;22.90;62.60;;;;;;4954157;29;20230;-73
2022/07/07 08:32:19;;;;;;;1.80;1.20;;;22.90;62.70;;;;;;4936835;29;20179;-73
2022/07/07 08:34:45;;;;;;;1.40;1.30;;;22.90;62.60;;;;;;4968817;28;20183;-73
2022/07/07 08:37:11;;;;;;;1.58;1.48;;;22.90;62.60;;;;;;4952269;28;20249;-74
2022/07/07 08:39:38;;;;;;;1.33;1.23;;;22.90;62.60;;;;;;4952856;28;20203;-73
2022/07/07 08:42:05;;;;;;;1.40;1.30;;;22.90;62.60;;;;;;4937049;29;20191;-73
2022/07/07 08:44:31;;;;;;;1.52;1.35;;;22.90;62.50;;;;;;4954104;29;20646;-73
2022/07/07 08:46:57;;;;;;;1.40;1.30;;;22.90;62.50;;;;;;4952016;28;20281;-73
2022/07/07 08:49:23;;;;;;;1.90;1.42;;;22.90;62.50;;;;;;4937321;28;20281;-73
2022/07/07 08:51:49;;;;;;;1.25;1.25;;;23.00;62.60;;;;;;4957064;28;20190;-74
2022/07/07 08:54:16;;;;;;;1.92;1.38;;;23.00;62.60;;;;;;4956765;29;20193;-73
2022/07/07 08:56:43;;;;;;;2.45;1.70;;;23.00;62.80;;;;;;4956000;28;20191;-73
2022/07/07 08:59:13;;;;;;;1.45;1.30;;;23.00;62.70;;;;;;4940642;29;20189;-74
2022/07/07 09:01:39;;;;;;;1.70;1.40;;;22.90;62.40;;;;;;4940286;28;20194;-73
2022/07/07 09:04:06;;;;;;;1.25;1.15;;;23.00;62.50;;;;;;4958143;28;20198;-72
2022/07/07 09:06:32;;;;;;;1.95;1.40;;;23.00;62.60;;;;;;4956858;28;20281;-72
2022/07/07 09:09:01;;;;;;;1.40;1.30;;;22.90;62.40;;;;;;4956885;29;20190;-72
2022/07/07 09:11:34;;;;;;;1.05;1.00;;;23.00;62.50;;;;;;4957919;28;20202;-73
2022/07/07 09:14:14;;;;;;;1.52;1.42;;;23.00;62.60;;;;;;4956828;29;20183;-73
2022/07/07 09:16:41;;;;;;;1.48;1.38;;;22.90;62.60;;;;;;4940813;28;20217;-72
2022/07/07 09:19:25;;;;;;;1.50;1.40;;;22.90;62.60;;;;;;4956589;29;20801;-72
2022/07/07 09:21:51;;;;;;;1.33;1.33;;;23.00;62.50;;;;;;4956783;28;20230;-72
2022/07/07 09:24:18;;;;;;;1.58;1.48;;;23.00;62.60;;;;;;4956378;28;20575;-72
2022/07/07 09:26:56;;;;;;;1.50;1.40;;;23.00;62.60;;;;;;4955986;28;20183;-73
2022/07/07 09:29:23;;;;;;;2.65;1.88;;;23.00;62.60;;;;;;4957438;28;20186;-73
2022/07/07 09:32:04;;;;;;;1.85;1.70;;;23.00;62.60;;;;;;4956387;29;20205;-73
2022/07/07 09:34:37;;;;;;;2.25;1.55;;;23.00;62.60;;;;;;4956223;29;20167;-72
2022/07/07 09:39:56;;;;;;;3.50;1.40;;;23.00;62.50;;;;;;4938178;29;20262;-71
2022/07/07 09:42:32;;;;;;;1.55;1.45;;;23.00;62.50;;;;;;4937815;29;20187;-72
2022/07/07 09:45:04;;;;;;;1.73;1.40;;;23.00;62.60;;;;;;4938292;29;20183;-72
2022/07/07 09:47:32;;;;;;;1.73;1.30;;;23.00;62.50;;;;;;4939937;29;20180;-73
2022/07/07 09:50:04;;;;;;;1.50;1.40;;;23.00;62.50;;;;;;4941826;28;20265;-72
2022/07/07 09:52:35;;;;;;;1.30;1.25;;;23.00;62.50;;;;;;4952523;29;20191;-72
2022/07/07 09:55:03;;;;;;;1.40;1.30;;;23.00;62.50;;;;;;4938145;29;20163;-72
2022/07/07 09:57:29;;;;;;;1.95;1.58;;;23.00;62.50;;;;;;4952205;28;20180;-72
2022/07/07 09:59:55;;;;;;;1.42;1.33;;;23.00;62.60;;;;;;4936646;29;20600;-73
2022/07/07 10:02:25;;;;;;;1.40;1.30;;;23.00;62.50;;;;;;4936941;29;20659;-72
2022/07/07 10:04:55;;;;;;;1.70;1.60;;;23.00;62.40;;;;;;4936940;29;20195;-72
2022/07/07 10:07:30;;;;;;;1.75;1.23;;;23.00;62.50;;;;;;4937378;29;20192;-73
2022/07/07 10:10:01;;;;;;;1.58;1.48;;;23.00;62.60;;;;;;4921191;29;20317;-72
2022/07/07 10:12:29;;;;;;;1.50;1.40;;;23.00;62.50;;;;;;4920843;29;20605;-73
2022/07/07 10:15:02;;;;;;;1.70;1.60;;;23.00;62.60;;;;;;4936680;29;20686;-73
2022/07/07 10:17:29;;;;;;;1.45;1.35;;;23.00;62.60;;;;;;4935958;29;20572;-72
2022/07/07 10:19:56;;;;;;;2.20;1.45;;;22.90;62.60;;;;;;4951755;29;20215;-72
2022/07/07 10:22:27;;;;;;;2.60;1.48;;;23.00;62.70;;;;;;4937211;29;20186;-72
2022/07/07 10:25:00;;;;;;;1.48;1.25;;;23.00;62.70;;;;;;4942430;29;20588;-72
2022/07/07 10:27:28;;;;;;;1.33;1.30;;;22.90;62.60;;;;;;4967976;28;20233;-72
2022/07/07 10:29:58;;;;;;;1.58;1.48;;;23.00;62.60;;;;;;4955360;28;20226;-72
2022/07/07 10:32:49;;;;;;;1.75;1.60;;;23.00;62.60;;;;;;4939668;28;20183;-72
2022/07/07 10:35:17;;;;;;;3.00;1.48;;;23.00;62.60;;;;;;4955449;29;20187;-72
2022/07/07 10:37:46;;;;;;;1.45;1.30;;;23.00;62.60;;;;;;4954304;28;20273;-72
2022/07/07 10:40:21;;;;;;;1.92;1.55;;;23.00;62.50;;;;;;4969041;28;20214;-72
2022/07/07 10:43:26;;;;;;;1.63;1.52;;;23.00;62.50;;;;;;4946908;28;20270;-72
2022/07/07 10:45:55;;;;;;;1.48;1.38;;;22.90;62.50;;;;;;4942339;28;20190;-72
2022/07/07 10:48:48;;;;;;;1.48;1.38;;;23.00;62.60;;;;;;4970802;28;20186;-72
2022/07/07 10:51:23;;;;;;;2.03;1.20;;;23.00;62.60;;;;;;4954653;29;20261;-71
2022/07/07 10:54:10;;;;;;;1.50;1.40;;;23.00;62.60;;;;;;4955176;28;20277;-71
2022/07/07 10:56:51;;;;;;;1.70;1.60;;;23.00;62.50;;;;;;4945464;28;20179;-72
2022/07/07 10:59:20;;;;;;;1.50;1.40;;;22.90;62.40;;;;;;4951494;29;20183;-72
2022/07/07 11:02:09;;;;;;;1.42;1.17;;;22.90;62.50;;;;;;4919859;29;20202;-72
2022/07/07 11:04:41;;;;;;;1.40;1.30;;;23.00;62.50;;;;;;4947840;29;20207;-72
2022/07/07 11:07:15;;;;;;;1.67;1.20;;;23.00;62.60;;;;;;4951003;29;20171;-72
2022/07/07 11:10:11;;;;;;;1.33;1.23;;;23.00;62.60;;;;;;4961807;28;20262;-72
2022/07/07 11:12:46;;;;;;;1.42;1.33;;;23.00;62.60;;;;;;4954427;28;20200;-72
2022/07/07 11:15:15;;;;;;;2.25;1.40;;;23.00;62.60;;;;;;4954299;28;20190;-72
2022/07/07 11:17:42;;;;;;;1.70;1.60;;;23.00;62.60;;;;;;4954084;28;20573;-71
2022/07/07 11:20:30;;;;;;;1.58;1.48;;;23.00;62.60;;;;;;4970712;28;20198;-71
2022/07/07 11:23:10;;;;;;;3.03;1.50;;;23.00;62.50;;;;;;4938207;28;20194;-70
2022/07/07 11:25:39;;;;;;;1.63;1.52;;;23.00;62.80;;;;;;4955519;28;20194;-71
2022/07/07 11:28:07;;;;;;;1.45;1.35;;;23.00;62.80;;;;;;4970109;28;20916;-71
2022/07/07 11:30:34;;;;;;;1.98;1.40;;;23.00;62.60;;;;;;4954169;28;20218;-71
2022/07/07 11:33:02;;;;;;;1.80;1.60;;;23.00;62.70;;;;;;4954404;28;20187;-72
2022/07/07 11:35:36;;;;;;;1.48;1.38;;;23.00;62.60;;;;;;4954397;28;20183;-71
2022/07/07 11:38:05;;;;;;;1.60;1.50;;;23.00;62.70;;;;;;4937626;28;20273;-72
2022/07/07 11:40:31;;;;;;;1.50;1.40;;;23.00;62.60;;;;;;4954142;28;20281;-72
2022/07/07 11:43:00;;;;;;;1.50;1.20;;;23.00;62.50;;;;;;4970250;28;20186;-72
2022/07/07 11:45:31;;;;;;;2.72;1.55;;;23.00;62.50;;;;;;4970142;28;20191;-72
2022/07/07 11:48:03;;;;;;;1.58;1.48;;;23.00;62.60;;;;;;4969607;28;20190;-71
2022/07/07 11:50:32;;;;;;;1.70;1.60;;;23.00;62.80;;;;;;4969869;28;20233;-71
2022/07/07 11:53:02;;;;;;;2.22;1.60;;;23.00;62.70;;;;;;4969957;28;20268;-72
2022/07/07 11:55:29;;;;;;;1.60;1.50;;;23.00;62.60;;;;;;4953749;28;20193;-71
2022/07/07 11:58:04;;;;;;;1.65;1.40;;;23.00;62.60;;;;;;4969386;28;20229;-72
2022/07/07 12:00:33;;;;;;;1.48;1.38;;;23.00;62.80;;;;;;4969801;28;20210;-72
2022/07/07 12:03:03;;;;;;;2.08;1.27;;;23.00;62.60;;;;;;4954020;29;20210;-72
2022/07/07 12:05:46;;;;;;;1.52;1.25;;;23.00;62.70;;;;;;4970107;28;20278;-72
2022/07/07 12:08:13;;;;;;;1.45;1.35;;;23.00;62.70;;;;;;4953273;29;20170;-72
2022/07/07 12:10:51;;;;;;;2.60;1.48;;;23.00;62.70;;;;;;4954370;28;20830;-72
2022/07/07 12:13:18;;;;;;;1.40;1.30;;;22.90;62.70;;;;;;4969588;28;20198;-72
2022/07/07 12:15:48;;;;;;;1.50;1.40;;;22.90;62.60;;;;;;4953547;28;20185;-72
2022/07/07 12:18:39;;;;;;;1.38;1.20;;;22.90;62.60;;;;;;4952990;29;20245;-72
2022/07/07 12:21:11;;;;;;;1.30;1.20;;;23.00;62.80;;;;;;4957245;28;20216;-72
2022/07/07 12:23:41;;;;;;;2.35;1.35;;;22.90;62.80;;;;;;4988341;28;20193;-72
2022/07/07 12:26:10;;;;;;;1.33;1.20;;;23.00;62.90;;;;;;4988721;28;20600;-72
2022/07/07 12:28:36;;;;;;;1.50;1.40;;;23.00;63.00;;;;;;4973585;28;20607;-72
2022/07/07 12:31:04;;;;;;;1.45;1.33;;;23.00;62.90;;;;;;4956387;28;20217;-72
2022/07/07 12:33:38;;;;;;;1.88;1.30;;;22.90;62.90;;;;;;4956811;28;20196;-72
2022/07/07 12:36:16;;;;;;;1.50;1.40;;;22.90;62.70;;;;;;4972858;28;20260;-72
2022/07/07 12:38:57;;;;;;;1.08;1.08;;;23.00;62.90;;;;;;4972474;28;20185;-72
2022/07/07 12:41:33;;;;;;;1.20;1.08;;;22.90;62.80;;;;;;4956226;28;20216;-72
2022/07/07 12:44:19;;;;;;;1.40;1.30;;;23.00;62.80;;;;;;4972580;28;20637;-72
2022/07/07 12:46:45;;;;;;;1.40;1.30;;;22.90;62.70;;;;;;4972251;28;20657;-72
2022/07/07 12:49:12;;;;;;;1.60;1.50;;;22.90;62.90;;;;;;4971768;28;20196;-72
2022/07/07 12:51:42;;;;;;;1.25;1.25;;;23.00;63.00;;;;;;4988499;28;20340;-71
2022/07/07 12:54:21;;;;;;;1.40;1.30;;;22.90;62.90;;;;;;4971577;28;20193;-72
2022/07/07 12:57:03;;;;;;;1.60;1.50;;;22.90;62.90;;;;;;4988802;28;20630;-72